createdAt,value
2022-09-21T00:10:37.781Z,983.63
2022-09-21T00:22:38.157Z,983.63
2022-09-21T00:34:38.637Z,983.78
2022-09-21T00:46:39.123Z,983.74
2022-09-21T00:58:39.576Z,983.67
2022-09-21T01:10:40.019Z,983.62
2022-09-21T01:22:40.449Z,983.58
2022-09-21T01:34:40.891Z,983.75
2022-09-21T01:46:41.334Z,983.73
2022-09-21T01:58:41.818Z,983.62
2022-09-21T02:10:42.291Z,983.58
2022-09-21T02:22:42.741Z,983.70
2022-09-21T02:34:43.196Z,983.71
2022-09-21T02:46:43.780Z,983.70
2022-09-21T02:58:44.080Z,983.73
2022-09-21T03:10:44.552Z,983.82
2022-09-21T03:22:45.038Z,983.89
2022-09-21T03:34:45.430Z,984.00
2022-09-21T03:46:45.882Z,984.06
2022-09-21T03:58:46.346Z,984.38
2022-09-21T04:10:46.814Z,984.21
2022-09-21T04:22:47.251Z,984.28
2022-09-21T04:34:47.726Z,984.38
2022-09-21T04:46:48.178Z,984.48
2022-09-21T04:58:48.624Z,984.61
2022-09-21T05:10:49.060Z,984.76
2022-09-21T05:22:49.512Z,984.87
2022-09-21T05:34:49.948Z,984.81
2022-09-21T05:46:55.334Z,984.96
2022-09-21T05:58:50.836Z,985.00
2022-09-21T06:10:51.320Z,985.02
2022-09-21T06:22:51.754Z,985.12
2022-09-21T06:34:52.234Z,985.16
2022-09-21T06:46:52.678Z,985.04
2022-09-21T06:58:53.133Z,984.97
2022-09-21T07:10:53.582Z,985.03
2022-09-21T07:22:54.064Z,985.26
2022-09-21T07:34:54.490Z,985.20
2022-09-21T07:46:54.953Z,985.41
2022-09-21T07:58:55.426Z,985.37
2022-09-21T08:10:55.867Z,985.24
2022-09-21T08:22:56.324Z,985.35
2022-09-21T08:34:57.207Z,985.30
2022-09-21T08:46:57.196Z,985.44
2022-09-21T08:58:57.675Z,985.41
2022-09-21T09:10:58.108Z,985.23
2022-09-21T09:22:58.578Z,985.16
2022-09-21T09:34:58.980Z,985.05
2022-09-21T09:46:59.567Z,984.97
2022-09-21T09:58:59.887Z,984.81
2022-09-21T10:11:00.373Z,985.04
2022-09-21T10:23:00.839Z,984.90
2022-09-21T10:35:01.320Z,984.89
2022-09-21T10:47:01.828Z,984.74
2022-09-21T10:59:02.194Z,984.85
2022-09-21T11:11:02.659Z,984.73
2022-09-21T11:23:03.132Z,984.79
2022-09-21T11:35:03.585Z,984.98
2022-09-21T11:47:04.028Z,984.87
2022-09-21T11:59:04.463Z,984.82
2022-09-21T12:11:04.906Z,984.83
2022-09-21T12:23:05.356Z,984.82
2022-09-21T12:35:05.830Z,984.59
2022-09-21T12:47:06.273Z,984.58
2022-09-21T12:59:06.941Z,984.54
2022-09-21T13:11:07.206Z,984.47
2022-09-21T13:23:07.669Z,984.61
2022-09-21T13:35:08.098Z,984.56
2022-09-21T13:47:08.569Z,984.56
2022-09-21T13:59:09.034Z,984.45
2022-09-21T14:11:09.498Z,984.43
2022-09-21T14:23:09.895Z,984.41
2022-09-21T14:35:18.008Z,984.53
2022-09-21T14:47:10.884Z,984.57
2022-09-21T14:59:11.326Z,984.56
2022-09-21T15:11:11.770Z,984.38
2022-09-21T15:23:12.222Z,984.32
2022-09-21T15:35:12.659Z,984.43
2022-09-21T15:47:13.123Z,984.49
2022-09-21T15:59:13.554Z,984.62
2022-09-21T16:11:14.170Z,984.75
2022-09-21T16:23:14.500Z,984.81
2022-09-21T16:35:14.933Z,984.96
2022-09-21T16:47:15.388Z,984.84
2022-09-21T16:59:15.830Z,984.92
2022-09-21T17:11:16.276Z,984.90
2022-09-21T17:23:16.761Z,984.91
2022-09-21T17:35:17.219Z,984.95
2022-09-21T17:47:17.672Z,985.08
2022-09-21T17:59:18.120Z,985.20
2022-09-21T18:11:18.583Z,985.35
2022-09-21T18:23:19.003Z,985.37
2022-09-21T18:35:19.467Z,985.51
2022-09-21T18:47:19.937Z,985.56
2022-09-21T18:59:20.380Z,985.53
2022-09-21T19:11:20.844Z,985.48
2022-09-21T19:23:21.269Z,985.63
2022-09-21T19:35:21.722Z,985.61
2022-09-21T19:47:22.178Z,985.75
2022-09-21T19:59:22.651Z,985.73
2022-09-21T20:11:23.128Z,985.68
2022-09-21T20:23:23.546Z,985.78
2022-09-21T20:35:23.981Z,985.75
2022-09-21T20:47:24.471Z,985.72
2022-09-21T20:59:24.932Z,985.80
2022-09-21T21:11:25.393Z,985.78
2022-09-21T21:23:25.795Z,985.84
2022-09-21T21:35:26.282Z,985.80
2022-09-21T21:47:39.380Z,985.87
2022-09-21T21:59:27.176Z,985.67
2022-09-21T22:11:27.620Z,985.66
2022-09-21T22:23:28.084Z,985.66
2022-09-21T22:35:28.558Z,985.59
2022-09-21T22:47:28.947Z,985.58
2022-09-21T22:59:29.444Z,985.34
2022-09-21T23:11:29.890Z,985.27
2022-09-21T23:23:30.366Z,985.25
2022-09-21T23:35:30.808Z,985.19
2022-09-21T23:47:31.227Z,985.22
2022-09-21T23:59:31.700Z,985.16
